TAF MGPB
METAR MGPB
MGPB 082300Z 03004KT 9999 SCT020 27/24 Q1012 A2988 FEW090=
MGPB 082200Z 08004KT 9999 SCT020 29/24 Q1012 A2988=
MGPB 082100Z 36008KT 9999 SCT020 30/24 Q1012 A2988=
MGPB 082000Z 30008KT 9999 FEW020 30/24 Q1012 A2980=
MGPB 081900Z 33008KT 9999 FEW020 30/24 Q1013 A2991 =
WC MGPB
WS MGPB
WV MGPB